Time;durP1;ratioP1;P1;durP2;ratioP2;P2;SDS_P1;SDS_P2;PMS_P1;PMS_P2;Temp;Humidity;BMP_temperature;BMP_pressure;BME280_temperature;BME280_humidity;BME280_pressure;Samples;Min_cycle;Max_cycle;Signal;HPM_P1;HPM_P2
2022/08/29 00:00:23;;;;;;;2.70;1.38;;;;;;;14.32;100.00;101085.53;4952332;28;20477;-67
2022/08/29 00:02:52;;;;;;;3.78;1.30;;;;;;;14.30;100.00;101078.59;4952471;29;20043;-67
2022/08/29 00:05:20;;;;;;;5.32;1.70;;;;;;;14.25;100.00;101068.28;4943329;28;20418;-66
2022/08/29 00:07:45;;;;;;;3.53;1.35;;;;;;;14.25;100.00;101075.38;4953399;29;20421;-66
2022/08/29 00:10:11;;;;;;;6.28;1.60;;;;;;;14.22;100.00;101084.31;4953897;28;20038;-66
2022/08/29 00:12:36;;;;;;;4.40;1.45;;;;;;;14.14;100.00;101075.94;4953504;28;20028;-67
2022/08/29 00:15:05;;;;;;;3.00;1.65;;;;;;;14.17;100.00;101082.84;4945856;28;20440;-67
2022/08/29 00:17:31;;;;;;;2.67;1.58;;;;;;;14.15;100.00;101076.78;4960101;28;20384;-67
2022/08/29 00:19:56;;;;;;;3.78;1.88;;;;;;;14.14;100.00;101080.38;4952757;28;20106;-67
2022/08/29 00:22:21;;;;;;;2.60;1.35;;;;;;;14.10;100.00;101082.31;4953895;28;20031;-67
2022/08/29 00:24:47;;;;;;;2.67;1.38;;;;;;;14.08;100.00;101086.84;4953231;28;20114;-67
2022/08/29 00:27:12;;;;;;;3.15;1.52;;;;;;;14.00;100.00;101083.75;4953289;28;20389;-67
2022/08/29 00:29:38;;;;;;;3.45;1.60;;;;;;;13.98;100.00;101082.13;4949145;28;20102;-67
2022/08/29 00:32:04;;;;;;;5.93;1.80;;;;;;;13.92;100.00;101083.31;4950401;28;20077;-67
2022/08/29 00:34:29;;;;;;;3.40;1.60;;;;;;;13.87;100.00;101087.13;4961807;28;20054;-67
2022/08/29 00:36:55;;;;;;;3.60;1.60;;;;;;;13.87;100.00;101087.97;4953111;28;20103;-67
2022/08/29 00:39:20;;;;;;;4.13;1.60;;;;;;;13.81;100.00;101080.38;4953902;28;20027;-68
2022/08/29 00:41:45;;;;;;;4.22;1.80;;;;;;;13.85;100.00;101089.88;4952296;28;20109;-68
2022/08/29 00:44:11;;;;;;;3.42;1.70;;;;;;;13.67;100.00;101064.41;4954150;29;20053;-68
2022/08/29 00:46:39;;;;;;;6.00;2.25;;;;;;;13.72;100.00;101089.63;4951792;28;20500;-68
2022/08/29 00:49:23;;;;;;;3.83;1.80;;;;;;;13.67;100.00;101090.81;4950659;29;20362;-67
2022/08/29 00:51:50;;;;;;;7.47;2.35;;;;;;;13.30;100.00;101042.53;4935071;28;20050;-68
2022/08/29 00:54:15;;;;;;;6.70;1.67;;;;;;;13.62;100.00;101100.78;5018333;28;20432;-68
2022/08/29 00:56:42;;;;;;;2.92;1.40;;;;;;;13.62;100.00;101100.78;4952738;28;20032;-68
2022/08/29 00:59:10;;;;;;;3.80;1.80;;;;;;;13.61;100.00;101094.63;4952485;28;20457;-68
2022/08/29 01:01:36;;;;;;;3.42;1.50;;;;;;;13.57;100.00;101089.56;4928778;28;20043;-68
2022/08/29 01:04:02;;;;;;;4.32;1.65;;;;;;;13.48;100.00;101079.50;4952942;28;20034;-68
2022/08/29 01:06:29;;;;;;;7.35;1.55;;;;;;;13.53;100.00;101099.44;4952436;28;20421;-68
2022/08/29 01:08:55;;;;;;;8.10;1.88;;;;;;;13.35;100.00;101094.25;4952313;28;20030;-68
2022/08/29 01:14:04;;;;;;;3.77;2.10;;;;;;;13.17;100.00;101081.03;4952996;28;20116;-68
2022/08/29 01:16:31;;;;;;;7.40;2.65;;;;;;;13.26;100.00;101103.47;4952806;28;20118;-68
2022/08/29 01:19:03;;;;;;;5.28;1.88;;;;;;;12.82;100.00;101043.19;4935521;29;20477;-67
2022/08/29 01:21:48;;;;;;;5.25;2.10;;;;;;;13.10;100.00;101106.03;4952815;29;20556;-68
2022/08/29 01:24:37;;;;;;;4.90;1.98;;;;;;;13.00;100.00;101094.19;4967419;28;20027;-68
2022/08/29 01:27:03;;;;;;;5.45;2.08;;;;;;;12.89;100.00;101093.84;4953098;28;20059;-67
2022/08/29 01:29:28;;;;;;;3.10;1.52;;;;;;;12.91;100.00;101097.25;4952312;28;20059;-68
2022/08/29 01:31:54;;;;;;;4.53;1.80;;;;;;;12.90;100.00;101092.91;4952438;28;20035;-68
2022/08/29 01:34:20;;;;;;;5.40;1.80;;;;;;;12.79;100.00;101084.66;4952286;28;20026;-68
2022/08/29 01:36:52;;;;;;;5.95;2.08;;;;;;;12.82;100.00;101092.44;4951448;28;20023;-67
2022/08/29 01:39:25;;;;;;;6.35;1.75;;;;;;;12.65;100.00;101081.81;4935075;28;20035;-67
2022/08/29 01:41:51;;;;;;;5.82;2.60;;;;;;;12.77;100.00;101099.72;4948207;29;20119;-67
2022/08/29 01:44:20;;;;;;;3.70;2.05;;;;;;;12.79;100.00;101105.75;4950836;28;20027;-67
2022/08/29 01:46:48;;;;;;;3.53;1.63;;;;;;;12.77;100.00;101105.00;4952013;28;20155;-67
2022/08/29 01:49:14;;;;;;;7.50;1.98;;;;;;;12.48;100.00;101058.03;4951275;28;20035;-67
2022/08/29 01:51:40;;;;;;;5.38;2.25;;;;;;;12.61;100.00;101081.13;4951689;29;20035;-67
2022/08/29 01:54:07;;;;;;;4.43;1.80;;;;;;;12.73;100.00;101100.78;4951429;28;20591;-67
2022/08/29 01:56:34;;;;;;;5.40;2.05;;;;;;;12.64;100.00;101090.69;4946739;28;20032;-67
2022/08/29 01:59:02;;;;;;;5.38;2.13;;;;;;;12.75;100.00;101104.19;4899665;29;20066;-67
2022/08/29 02:01:35;;;;;;;4.38;2.13;;;;;;;12.76;100.00;101104.13;4910918;29;20043;-68
2022/08/29 02:04:01;;;;;;;4.70;2.27;;;;;;;12.72;100.00;101085.88;4906888;28;20036;-67
2022/08/29 02:06:27;;;;;;;8.63;2.80;;;;;;;12.74;100.00;101097.22;4932428;28;20032;-67
2022/08/29 02:08:52;;;;;;;7.47;2.25;;;;;;;12.74;100.00;101097.22;4951136;29;20038;-68
2022/08/29 02:11:19;;;;;;;5.05;2.00;;;;;;;12.74;100.00;101105.97;4951031;29;20038;-68
2022/08/29 02:13:48;;;;;;;4.47;1.88;;;;;;;12.68;100.00;101102.78;4941358;28;20035;-68
2022/08/29 02:16:14;;;;;;;5.45;2.22;;;;;;;12.55;100.00;101085.81;4951277;28;20027;-68
2022/08/29 02:18:41;;;;;;;4.63;2.15;;;;;;;12.21;100.00;101031.22;4950691;28;20035;-68
2022/08/29 02:21:07;;;;;;;6.20;2.53;;;;;;;12.62;100.00;101097.78;4950971;28;20031;-68
2022/08/29 02:23:34;;;;;;;10.13;2.50;;;;;;;12.55;100.00;101085.81;4950167;28;20030;-68
2022/08/29 02:25:59;;;;;;;5.30;2.38;;;;;;;12.58;100.00;101086.53;4950056;28;20489;-69
2022/08/29 02:28:25;;;;;;;5.07;2.10;;;;;;;12.63;100.00;101110.06;4951073;28;20023;-69
2022/08/29 02:30:52;;;;;;;5.32;2.35;;;;;;;12.57;100.00;101102.44;4951173;28;20444;-69
2022/08/29 02:33:18;;;;;;;4.03;2.25;;;;;;;12.52;100.00;101101.78;4950941;28;20024;-69
2022/08/29 02:35:44;;;;;;;5.53;2.85;;;;;;;12.44;100.00;101083.69;4948840;29;20186;-69
2022/08/29 02:38:10;;;;;;;5.75;2.58;;;;;;;12.19;100.00;101049.75;4950362;29;20031;-68
2022/08/29 02:40:35;;;;;;;3.78;2.05;;;;;;;12.46;100.00;101102.09;4951002;28;20094;-68
2022/08/29 02:43:02;;;;;;;6.53;2.85;;;;;;;12.47;100.00;101101.16;4950755;28;20123;-68
2022/08/29 02:45:28;;;;;;;9.35;3.13;;;;;;;12.45;100.00;101095.97;4951254;28;20058;-68
2022/08/29 02:47:53;;;;;;;4.63;2.40;;;;;;;12.46;100.00;101094.19;4950974;29;20662;-68
2022/08/29 02:50:19;;;;;;;5.47;2.67;;;;;;;12.51;100.00;101089.53;4950578;28;20033;-68
2022/08/29 02:52:45;;;;;;;6.30;2.88;;;;;;;12.54;100.00;101089.41;4951004;28;20448;-68
2022/08/29 02:55:15;;;;;;;5.20;2.75;;;;;;;12.51;100.00;101085.13;4950611;28;20039;-69
2022/08/29 02:57:42;;;;;;;4.47;2.10;;;;;;;12.44;100.00;101072.28;4950445;28;20098;-68
2022/08/29 03:00:11;;;;;;;5.07;2.88;;;;;;;12.57;100.00;101089.28;4950348;28;20027;-68
2022/08/29 03:02:37;;;;;;;4.63;2.47;;;;;;;12.54;100.00;101076.22;4950182;29;20043;-68
2022/08/29 03:05:04;;;;;;;10.00;2.95;;;;;;;12.58;100.00;101083.03;4949081;28;20024;-68
2022/08/29 03:07:29;;;;;;;5.10;2.15;;;;;;;12.56;100.00;101077.00;4950742;28;20043;-68
2022/08/29 03:09:55;;;;;;;5.38;2.53;;;;;;;12.57;100.00;101078.72;4949513;28;20733;-68
2022/08/29 03:12:20;;;;;;;5.53;2.30;;;;;;;12.52;100.00;101075.44;4950568;28;20051;-68
2022/08/29 03:14:45;;;;;;;9.20;2.38;;;;;;;12.53;100.00;101077.16;4951118;28;20516;-68
2022/08/29 03:17:11;;;;;;;7.93;2.60;;;;;;;12.54;100.00;101076.22;4950735;28;20077;-68
2022/08/29 03:19:36;;;;;;;5.40;2.42;;;;;;;12.48;100.00;101063.31;4953125;28;20470;-68
2022/08/29 03:22:01;;;;;;;7.53;2.40;;;;;;;12.59;100.00;101082.13;4945141;28;20040;-68
2022/08/29 03:24:27;;;;;;;4.75;2.55;;;;;;;12.53;100.00;101082.44;4950372;28;20024;-68
2022/08/29 03:26:53;;;;;;;8.07;2.60;;;;;;;12.46;100.00;101073.09;4945095;28;20036;-68
2022/08/29 03:29:18;;;;;;;7.68;2.78;;;;;;;12.44;100.00;101072.28;4949497;28;20031;-67
2022/08/29 03:31:44;;;;;;;6.25;2.75;;;;;;;12.46;100.00;101086.28;4953782;29;20452;-67
2022/08/29 03:34:09;;;;;;;6.78;2.22;;;;;;;12.47;100.00;101088.00;4954037;28;20058;-67
2022/08/29 03:36:34;;;;;;;4.13;2.35;;;;;;;12.45;100.00;101079.28;4953385;28;20106;-67
2022/08/29 03:39:00;;;;;;;5.95;2.35;;;;;;;12.35;100.00;101063.06;4953215;28;20084;-67
2022/08/29 03:41:27;;;;;;;5.20;2.55;;;;;;;12.44;100.00;101083.69;4953497;28;20089;-67
2022/08/29 03:43:58;;;;;;;5.03;2.92;;;;;;;12.44;100.00;101078.41;4950431;28;20042;-67
2022/08/29 03:46:25;;;;;;;5.47;2.78;;;;;;;12.18;100.00;101029.59;4953544;28;20057;-67
2022/08/29 03:48:50;;;;;;;5.65;2.55;;;;;;;12.47;100.00;101070.38;4946060;28;20035;-67
2022/08/29 03:51:16;;;;;;;4.45;2.40;;;;;;;12.49;100.00;101079.06;4927451;28;20042;-68
2022/08/29 03:53:41;;;;;;;8.90;2.90;;;;;;;12.49;100.00;101083.50;4953148;28;20027;-68
2022/08/29 03:56:08;;;;;;;8.00;3.25;;;;;;;12.47;100.00;101088.00;4952994;28;20500;-68
2022/08/29 03:58:33;;;;;;;5.82;3.17;;;;;;;12.38;100.00;101069.94;4953135;28;20122;-68
2022/08/29 04:00:59;;;;;;;9.73;3.10;;;;;;;12.38;100.00;101067.31;4953072;28;20138;-68
2022/08/29 04:03:25;;;;;;;7.43;3.08;;;;;;;12.41;100.00;101073.31;4953374;29;20089;-66
2022/08/29 04:05:50;;;;;;;7.82;3.10;;;;;;;12.33;100.00;101064.06;4953382;28;20039;-66
2022/08/29 04:08:16;;;;;;;13.13;3.47;;;;;;;12.29;100.00;101064.19;4952276;28;20480;-68
2022/08/29 04:10:41;;;;;;;6.75;3.55;;;;;;;12.35;100.00;101072.72;4953146;28;20031;-67
2022/08/29 04:13:07;;;;;;;5.38;3.08;;;;;;;12.33;100.00;101070.19;4939594;28;20115;-67
2022/08/29 04:15:33;;;;;;;6.93;3.33;;;;;;;12.36;100.00;101079.72;4946715;28;20027;-67
2022/08/29 04:18:02;;;;;;;8.35;3.33;;;;;;;12.36;100.00;101075.31;4939203;28;20081;-69
2022/08/29 04:20:33;;;;;;;11.95;3.72;;;;;;;12.36;100.00;101070.03;4941387;29;20490;-69
2022/08/29 04:22:59;;;;;;;6.00;2.97;;;;;;;12.37;100.00;101070.91;4951743;28;20489;-69
2022/08/29 04:25:26;;;;;;;5.88;3.00;;;;;;;12.33;100.00;101064.06;4953399;28;20112;-69
2022/08/29 04:27:53;;;;;;;5.65;3.08;;;;;;;12.39;100.00;101063.75;4952822;28;20027;-68
2022/08/29 04:30:21;;;;;;;6.72;3.00;;;;;;;12.37;100.00;101055.91;4942758;28;20486;-68
2022/08/29 04:32:46;;;;;;;7.00;3.58;;;;;;;12.41;100.00;101057.47;4939591;28;20042;-69
2022/08/29 04:35:13;;;;;;;6.70;3.40;;;;;;;12.45;100.00;101071.38;4934397;28;20115;-69
2022/08/29 04:37:39;;;;;;;5.38;2.45;;;;;;;12.38;100.00;101060.25;4946854;29;20107;-69
2022/08/29 04:40:07;;;;;;;6.05;2.85;;;;;;;12.43;100.00;101062.69;4952553;28;20031;-68
2022/08/29 04:42:35;;;;;;;6.75;2.53;;;;;;;12.49;100.00;101075.59;4944365;28;20039;-68
2022/08/29 04:45:00;;;;;;;6.28;3.13;;;;;;;12.35;100.00;101056.91;4948129;28;20039;-69
2022/08/29 04:47:26;;;;;;;4.53;2.92;;;;;;;12.48;100.00;101085.25;4952393;28;20559;-69
2022/08/29 04:49:55;;;;;;;6.25;3.55;;;;;;;12.50;100.00;101093.97;4952595;28;20023;-69
2022/08/29 04:52:20;;;;;;;8.82;3.17;;;;;;;12.39;100.00;101074.31;4952493;28;20047;-69
2022/08/29 04:54:46;;;;;;;6.30;3.05;;;;;;;12.34;100.00;101076.28;4950224;29;20038;-68
2022/08/29 04:57:11;;;;;;;12.23;3.28;;;;;;;12.47;100.00;101093.25;4952459;29;20367;-68
2022/08/29 04:59:37;;;;;;;15.32;3.75;;;;;;;12.26;100.00;101059.06;4952658;28;20106;-68
2022/08/29 05:02:02;;;;;;;7.03;3.58;;;;;;;12.50;100.00;101106.28;4951978;28;20042;-69
2022/08/29 05:04:27;;;;;;;8.95;3.75;;;;;;;12.46;100.00;101110.84;4952316;28;20149;-68
2022/08/29 05:06:53;;;;;;;5.93;3.10;;;;;;;12.44;100.00;101115.31;4939130;29;20034;-68
2022/08/29 05:09:18;;;;;;;10.10;3.65;;;;;;;12.37;100.00;101113.88;4952082;28;20035;-68
2022/08/29 05:11:44;;;;;;;10.88;3.75;;;;;;;12.40;100.00;101118.19;4938763;28;20032;-69
2022/08/29 05:14:09;;;;;;;6.78;3.58;;;;;;;12.38;100.00;101117.38;4952461;28;20038;-69
2022/08/29 05:16:38;;;;;;;12.85;3.95;;;;;;;12.42;100.00;101121.59;4952235;28;20019;-69
2022/08/29 05:19:05;;;;;;;8.95;3.55;;;;;;;12.31;100.00;101103.63;4934037;28;20426;-69
2022/08/29 05:21:35;;;;;;;8.02;3.78;;;;;;;12.48;100.00;101126.59;4939315;29;20050;-69
2022/08/29 05:24:04;;;;;;;6.85;3.17;;;;;;;12.52;100.00;101136.06;4939444;28;20038;-68
2022/08/29 05:26:32;;;;;;;12.20;3.42;;;;;;;12.53;100.00;101137.78;4958117;28;20040;-68
2022/08/29 05:28:57;;;;;;;4.68;2.80;;;;;;;12.54;100.00;101134.22;4939831;28;20039;-68
2022/08/29 05:31:22;;;;;;;5.72;3.53;;;;;;;12.59;100.00;101130.44;4934707;29;20035;-67
2022/08/29 05:33:49;;;;;;;7.25;4.03;;;;;;;12.54;100.00;101118.41;4941017;28;20032;-68
2022/08/29 05:36:14;;;;;;;7.20;3.90;;;;;;;12.69;100.00;101125.59;4952098;28;20165;-67
2022/08/29 05:38:40;;;;;;;20.17;3.85;;;;;;;12.69;100.00;101126.44;4966086;28;20098;-67
2022/08/29 05:41:06;;;;;;;6.85;3.83;;;;;;;12.69;100.00;101121.16;4951171;28;20027;-67
2022/08/29 05:43:32;;;;;;;7.07;3.53;;;;;;;12.70;100.00;101128.16;4951118;28;20031;-67
2022/08/29 05:46:06;;;;;;;6.45;3.72;;;;;;;12.69;100.00;101125.59;4961058;28;20058;-68
2022/08/29 05:48:33;;;;;;;8.23;4.63;;;;;;;12.68;100.00;101119.47;4935638;28;20051;-68
2022/08/29 05:50:59;;;;;;;7.38;3.63;;;;;;;12.76;100.00;101137.56;4946170;28;20034;-68
2022/08/29 05:53:25;;;;;;;6.97;3.65;;;;;;;12.77;100.00;101134.00;4934213;28;21264;-67
2022/08/29 05:55:51;;;;;;;6.85;3.67;;;;;;;12.74;100.00;101126.25;4944797;28;20062;-68
2022/08/29 05:58:17;;;;;;;5.85;3.33;;;;;;;12.75;100.00;101130.56;4943953;28;20113;-68
2022/08/29 06:00:43;;;;;;;7.60;3.55;;;;;;;12.82;100.00;101137.25;4951908;28;20457;-67
2022/08/29 06:03:09;;;;;;;4.40;2.65;;;;;;;12.78;100.00;101133.91;4947727;29;20035;-67
2022/08/29 06:05:35;;;;;;;7.57;3.60;;;;;;;12.84;100.00;101132.78;4951843;28;20031;-67
2022/08/29 06:08:01;;;;;;;6.65;3.47;;;;;;;12.85;100.00;101141.53;4952123;28;20041;-67
2022/08/29 06:10:26;;;;;;;8.52;3.50;;;;;;;12.93;100.00;101150.81;4952116;28;20057;-68
2022/08/29 06:12:52;;;;;;;6.97;3.50;;;;;;;12.97;100.00;101141.81;4949642;28;20367;-67
2022/08/29 06:15:18;;;;;;;8.35;4.03;;;;;;;13.04;100.00;101137.97;4937332;28;20036;-67
2022/08/29 06:17:43;;;;;;;6.13;3.53;;;;;;;13.10;100.00;101135.06;4933703;28;20039;-68
2022/08/29 06:20:09;;;;;;;6.07;3.60;;;;;;;13.21;100.00;101135.34;4934507;28;20051;-68
2022/08/29 06:22:36;;;;;;;7.57;3.70;;;;;;;13.28;100.00;101134.13;4944397;28;20034;-67
2022/08/29 06:25:01;;;;;;;6.57;3.50;;;;;;;13.44;100.00;101141.31;4944332;28;20031;-67
2022/08/29 06:27:27;;;;;;;6.07;2.90;;;;;;;13.55;100.00;101136.34;4949354;28;20097;-67
2022/08/29 06:29:52;;;;;;;7.05;2.90;;;;;;;13.63;100.00;101142.94;4942914;28;20059;-67
2022/08/29 06:32:18;;;;;;;6.50;3.25;;;;;;;13.73;100.00;101140.66;4940216;28;20040;-67
2022/08/29 06:34:43;;;;;;;4.05;2.72;;;;;;;13.75;100.00;101126.44;4936065;28;20031;-67
2022/08/29 06:37:09;;;;;;;7.45;3.78;;;;;;;13.62;100.00;101091.03;4944668;28;20369;-67
2022/08/29 06:39:34;;;;;;;8.02;3.42;;;;;;;13.68;100.00;101081.97;4950573;28;20028;-68
2022/08/29 06:42:00;;;;;;;10.77;3.72;;;;;;;14.10;100.00;101144.91;4951493;29;20035;-68
2022/08/29 06:44:25;;;;;;;5.97;3.45;;;;;;;14.18;100.00;101140.94;4950761;28;20031;-68
2022/08/29 06:46:51;;;;;;;5.00;3.10;;;;;;;14.21;100.00;101138.13;4951619;28;20088;-68
2022/08/29 06:49:18;;;;;;;13.05;2.97;;;;;;;14.34;100.00;101148.91;4950984;28;20051;-67
2022/08/29 06:51:47;;;;;;;4.18;2.45;;;;;;;14.41;100.00;101142.38;4936093;28;20447;-67
2022/08/29 06:54:14;;;;;;;9.48;2.70;;;;;;;14.47;100.00;101138.53;4920517;28;20492;-67
2022/08/29 06:56:40;;;;;;;6.68;2.80;;;;;;;14.51;100.00;101154.16;4937642;28;20123;-67
2022/08/29 06:59:06;;;;;;;5.47;2.90;;;;;;;14.53;100.00;101146.97;4945457;28;20114;-67
2022/08/29 07:01:31;;;;;;;6.22;3.10;;;;;;;14.55;100.00;101146.91;4949952;28;20035;-67
2022/08/29 07:03:57;;;;;;;4.95;2.47;;;;;;;14.59;100.00;101145.81;4954213;28;20042;-67
2022/08/29 07:06:23;;;;;;;7.45;3.47;;;;;;;14.61;100.00;101149.22;4948603;28;20027;-67
2022/08/29 07:08:49;;;;;;;6.47;2.92;;;;;;;14.63;100.00;101150.00;4953866;28;20378;-68
2022/08/29 07:11:15;;;;;;;10.90;3.53;;;;;;;14.12;100.00;101071.69;4952456;28;20032;-67
2022/08/29 07:13:40;;;;;;;8.40;3.13;;;;;;;14.58;100.00;101134.38;4917947;28;20042;-68
2022/08/29 07:16:08;;;;;;;11.52;3.10;;;;;;;14.59;100.00;101135.22;4946158;28;20049;-68
2022/08/29 07:18:34;;;;;;;9.73;3.25;;;;;;;14.70;100.00;101154.00;4935802;28;20032;-68
2022/08/29 07:21:04;;;;;;;10.63;3.03;;;;;;;14.66;100.00;101163.91;4950648;28;20113;-68
2022/08/29 07:23:30;;;;;;;5.45;3.22;;;;;;;14.70;100.00;101161.94;4949867;28;20451;-68
2022/08/29 07:26:07;;;;;;;6.75;3.35;;;;;;;14.64;100.00;101149.03;4953743;28;20031;-68
2022/08/29 07:28:34;;;;;;;6.07;3.25;;;;;;;14.61;100.00;101154.50;4949414;28;20039;-68
2022/08/29 07:31:00;;;;;;;7.22;3.35;;;;;;;14.58;100.00;101158.16;4948332;28;20389;-68
2022/08/29 07:33:25;;;;;;;4.72;2.72;;;;;;;14.46;100.00;101150.91;4943082;28;20027;-69
2022/08/29 07:35:53;;;;;;;13.25;3.38;;;;;;;14.52;100.00;101162.94;4936046;28;20085;-68
2022/08/29 07:38:19;;;;;;;9.38;3.45;;;;;;;14.47;100.00;101162.31;4942772;28;20023;-67
2022/08/29 07:40:44;;;;;;;10.52;4.13;;;;;;;14.44;100.00;101155.41;4945526;28;20115;-68
2022/08/29 07:43:10;;;;;;;6.97;3.50;;;;;;;14.19;100.00;101121.47;4951538;28;20118;-68
2022/08/29 07:45:37;;;;;;;9.48;4.15;;;;;;;14.42;100.00;101161.72;4944614;28;21334;-67
2022/08/29 07:48:02;;;;;;;6.00;2.97;;;;;;;14.41;100.00;101163.50;4939130;29;20097;-67
2022/08/29 07:50:28;;;;;;;10.10;3.85;;;;;;;14.45;100.00;101166.84;4934368;28;20494;-68
2022/08/29 07:52:53;;;;;;;9.40;4.82;;;;;;;14.43;100.00;101160.81;4941652;28;20110;-68
2022/08/29 07:55:20;;;;;;;9.15;4.53;;;;;;;14.47;100.00;101159.69;4938418;28;20101;-68
2022/08/29 07:57:47;;;;;;;11.00;4.93;;;;;;;14.50;100.00;101152.44;4936991;28;20032;-68
2022/08/29 08:00:13;;;;;;;10.43;4.65;;;;;;;14.53;100.00;101151.44;4949698;28;20466;-68
2022/08/29 08:02:38;;;;;;;7.18;4.30;;;;;;;14.32;100.00;101114.59;4952920;28;20038;-68
2022/08/29 08:05:04;;;;;;;9.88;4.88;;;;;;;14.75;100.00;101167.81;4952716;28;20406;-68
2022/08/29 08:07:31;;;;;;;6.47;4.00;;;;;;;14.88;100.00;101163.56;4940292;28;20031;-69
2022/08/29 08:09:57;;;;;;;8.13;4.65;;;;;;;14.83;100.00;101139.16;4952929;28;20055;-68
2022/08/29 08:12:24;;;;;;;7.35;4.05;;;;;;;15.19;100.00;101166.19;4936906;28;20073;-68
2022/08/29 08:14:50;;;;;;;9.57;3.90;;;;;;;15.40;100.00;101169.41;4937199;28;20142;-68
2022/08/29 08:17:15;;;;;;;6.68;3.50;;;;;;;15.51;100.00;101147.63;4941730;28;20095;-68
2022/08/29 08:19:40;;;;;;;14.82;4.65;;;;;;;15.71;100.00;101157.91;4950084;28;20126;-67
2022/08/29 08:22:06;;;;;;;10.73;5.38;;;;;;;15.89;100.00;101169.19;4949190;28;20493;-67
2022/08/29 08:24:31;;;;;;;7.00;3.60;;;;;;;16.01;100.00;101168.47;4943573;29;20115;-68
2022/08/29 08:26:57;;;;;;;10.18;4.05;;;;;;;16.18;100.00;101174.47;4953517;28;20486;-68
2022/08/29 08:29:22;;;;;;;6.65;3.65;;;;;;;16.26;100.00;101158.06;4936479;29;20361;-68
2022/08/29 08:31:49;;;;;;;9.02;3.45;;;;;;;16.46;100.00;101170.13;4944557;28;20031;-68
2022/08/29 08:34:15;;;;;;;7.32;2.83;;;;;;;16.65;100.00;101176.00;4932742;28;20428;-68
2022/08/29 08:36:43;;;;;;;5.95;3.55;;;;;;;16.75;100.00;101175.34;4940383;28;20024;-68
2022/08/29 08:39:10;;;;;;;7.30;2.83;;;;;;;16.67;100.00;101147.56;4950469;28;20085;-69
2022/08/29 08:42:14;;;;;;;6.88;2.08;;;;;;;16.99;100.00;101177.38;4952171;28;20027;-68
2022/08/29 08:44:40;;;;;;;5.53;3.17;;;;;;;17.04;100.00;101184.09;4952719;28;20395;-68
2022/08/29 08:47:06;;;;;;;6.22;2.95;;;;;;;16.95;100.00;101157.28;4952704;28;20089;-68
2022/08/29 08:49:44;;;;;;;5.35;3.05;;;;;;;17.13;100.00;101188.81;4966485;28;20405;-68
2022/08/29 08:52:15;;;;;;;5.90;2.97;;;;;;;17.10;100.00;101185.50;4948724;28;20039;-68
2022/08/29 08:55:02;;;;;;;6.85;2.45;;;;;;;17.12;100.00;101187.09;4917806;28;20039;-68
2022/08/29 08:57:34;;;;;;;8.13;2.95;;;;;;;16.96;100.00;101162.50;4935811;28;20051;-68
2022/08/29 09:00:00;;;;;;;7.70;3.05;;;;;;;17.07;100.00;101167.94;4920290;28;21126;-68
2022/08/29 09:03:07;;;;;;;5.15;2.53;;;;;;;17.21;100.00;101189.16;4937283;28;20454;-68
2022/08/29 09:05:44;;;;;;;6.40;2.47;;;;;;;17.25;100.00;101193.31;4948030;28;20035;-67
2022/08/29 09:08:28;;;;;;;10.02;3.33;;;;;;;17.26;100.00;101187.06;4971930;28;20030;-68
2022/08/29 09:11:10;;;;;;;8.10;2.55;;;;;;;17.22;100.00;101174.94;4956949;28;20055;-68
2022/08/29 09:13:54;;;;;;;5.63;2.53;;;;;;;17.14;100.00;101171.91;4928264;28;20079;-68
2022/08/29 09:16:28;;;;;;;4.75;2.58;;;;;;;17.19;100.00;101183.09;4934591;28;20032;-68
2022/08/29 09:18:55;;;;;;;6.28;2.97;;;;;;;17.25;100.00;101187.16;4934129;28;20110;-67
2022/08/29 09:21:22;;;;;;;5.70;2.83;;;;;;;17.29;100.00;101184.22;4938018;28;20027;-67
2022/08/29 09:23:50;;;;;;;6.28;2.65;;;;;;;17.31;100.00;101186.75;4935808;28;20028;-67
2022/08/29 09:26:18;;;;;;;9.25;3.30;;;;;;;17.36;100.00;101190.81;4920878;28;20114;-68
2022/08/29 09:28:44;;;;;;;7.10;2.88;;;;;;;17.12;100.00;101134.00;4937610;28;20023;-68
2022/08/29 09:31:23;;;;;;;7.68;3.13;;;;;;;17.56;100.00;101183.38;4933946;28;20028;-68
2022/08/29 09:33:55;;;;;;;5.82;1.98;;;;;;;17.67;100.00;101181.72;4941540;28;21502;-68
2022/08/29 09:36:40;;;;;;;6.07;2.72;;;;;;;17.86;100.00;101187.47;4934804;28;20043;-68
2022/08/29 09:39:12;;;;;;;3.83;1.95;;;;;;;18.09;100.00;101177.06;4930067;28;20039;-68
2022/08/29 09:41:38;;;;;;;4.75;2.22;;;;;;;18.17;100.00;101172.94;4939857;29;20035;-67
2022/08/29 09:44:03;;;;;;;6.53;2.95;;;;;;;18.20;100.00;101172.72;4922981;28;20031;-67
2022/08/29 09:46:28;;;;;;;6.05;2.35;;;;;;;18.21;100.00;101155.81;4936795;28;20106;-67
2022/08/29 09:49:03;;;;;;;12.27;3.38;;;;;;;18.43;100.00;101170.25;4938199;28;20460;-67
2022/08/29 09:51:50;;;;;;;12.40;3.10;;;;;;;18.37;100.00;101161.75;4929480;28;20127;-67
2022/08/29 09:54:27;;;;;;;8.15;2.65;;;;;;;18.58;100.00;101171.88;4931975;28;20109;-67
2022/08/29 09:56:58;;;;;;;4.68;2.25;;;;;;;18.64;100.00;101155.47;4932982;28;20379;-67
2022/08/29 09:59:30;;;;;;;7.60;2.40;;;;;;;18.77;100.00;101172.25;4919624;28;20546;-67
2022/08/29 10:02:13;;;;;;;4.82;2.28;;;;;;;18.85;100.00;101172.56;4939698;28;20051;-69
2022/08/29 10:04:41;;;;;;;9.05;2.30;;;;;;;18.92;100.00;101160.50;4938693;28;20363;-69
2022/08/29 10:07:09;;;;;;;8.68;3.10;;;;;;;18.91;100.00;101152.63;4950556;28;20050;-68
2022/08/29 10:09:34;;;;;;;6.80;3.05;;;;;;;18.99;100.00;101156.44;4949411;28;20074;-68
2022/08/29 10:12:08;;;;;;;5.18;2.72;;;;;;;19.11;100.00;101160.00;4930026;28;20066;-68
2022/08/29 10:14:40;;;;;;;5.28;2.72;;;;;;;19.17;100.00;101149.75;4916460;28;20727;-67
2022/08/29 10:19:59;;;;;;;5.90;2.83;;;;;;;19.14;100.00;101163.28;4937440;29;20046;-68
2022/08/29 10:22:36;;;;;;;5.57;2.42;;;;;;;19.11;100.00;101155.53;4950827;28;20469;-67
2022/08/29 10:25:01;;;;;;;16.23;3.10;;;;;;;19.20;100.00;101153.97;5007353;28;20531;-68
2022/08/29 10:27:43;;;;;;;4.10;2.17;;;;;;;19.27;100.00;101145.44;4950269;28;20027;-68
2022/08/29 10:30:15;;;;;;;5.15;2.55;;;;;;;19.51;100.00;101152.59;4917087;28;20441;-68
2022/08/29 10:33:08;;;;;;;5.72;2.72;;;;;;;19.74;100.00;101149.88;4940916;28;20036;-68
2022/08/29 10:35:39;;;;;;;5.90;2.63;;;;;;;19.82;100.00;101152.81;4933303;28;20390;-68
2022/08/29 10:38:32;;;;;;;7.50;2.75;;;;;;;19.87;100.00;101155.16;5011973;28;20041;-67
2022/08/29 10:41:17;;;;;;;6.05;2.58;;;;;;;19.80;100.00;101127.25;4950323;28;20378;-67
2022/08/29 10:44:05;;;;;;;6.00;2.95;;;;;;;19.97;100.00;101134.78;4942944;28;20032;-68
2022/08/29 10:46:43;;;;;;;8.85;3.45;;;;;;;19.74;100.00;101133.88;5008040;28;20030;-68
2022/08/29 10:49:30;;;;;;;5.13;2.42;;;;;;;19.68;100.00;101136.16;4940813;28;20063;-68
2022/08/29 10:52:02;;;;;;;6.30;2.78;;;;;;;19.70;100.00;101134.25;4931928;28;20410;-67
2022/08/29 10:54:38;;;;;;;6.28;3.00;;;;;;;19.69;100.00;101129.88;4932639;28;20130;-68
2022/08/29 10:57:06;;;;;;;7.00;3.58;;;;;;;19.66;100.00;101122.97;4952723;28;20081;-68
2022/08/29 10:59:40;;;;;;;4.97;2.20;;;;;;;19.67;100.00;101121.16;4950744;29;20453;-67
2022/08/29 11:02:17;;;;;;;4.65;2.85;;;;;;;19.78;100.00;101124.69;4938888;28;20501;-68
2022/08/29 11:04:49;;;;;;;9.52;3.20;;;;;;;19.86;100.00;101105.41;4922249;28;20374;-66
2022/08/29 11:07:27;;;;;;;7.65;3.55;;;;;;;19.84;100.00;101118.88;4936038;28;20028;-66
2022/08/29 11:10:05;;;;;;;9.07;3.40;;;;;;;19.80;100.00;101111.22;4937017;28;21562;-67
2022/08/29 11:12:44;;;;;;;5.78;3.13;;;;;;;19.84;100.00;101108.19;4917481;28;20039;-67
2022/08/29 11:15:13;;;;;;;9.48;2.92;;;;;;;20.01;100.00;101112.22;5000193;28;20036;-68
2022/08/29 11:17:40;;;;;;;4.88;2.72;;;;;;;20.30;100.00;101116.16;4934778;28;20114;-68
2022/08/29 11:20:18;;;;;;;9.48;3.15;;;;;;;20.49;100.00;101114.69;4950606;28;20023;-67
2022/08/29 11:23:25;;;;;;;8.75;3.25;;;;;;;20.43;100.00;101113.38;4937189;28;20050;-68
2022/08/29 11:25:50;;;;;;;5.90;2.92;;;;;;;20.68;100.00;101109.59;4945194;28;20054;-67
2022/08/29 11:28:33;;;;;;;5.60;2.83;;;;;;;20.78;96.77;101106.03;4948321;28;20385;-68